createdAt,value
2018-10-02T00:00:24.120Z,100.00
2018-10-02T00:02:58.555Z,100.00
2018-10-02T00:05:32.874Z,100.00
2018-10-02T00:08:07.326Z,100.00
2018-10-02T00:10:45.205Z,100.00
2018-10-02T00:13:24.864Z,100.00
2018-10-02T00:16:03.117Z,100.00
2018-10-02T00:18:37.662Z,100.00
2018-10-02T00:21:11.954Z,100.00
2018-10-02T00:23:46.374Z,100.00
2018-10-02T00:26:20.791Z,100.00
2018-10-02T00:28:55.028Z,100.00
2018-10-02T00:31:29.603Z,100.00
2018-10-02T00:34:04.038Z,100.00
2018-10-02T00:36:38.382Z,100.00
2018-10-02T00:39:21.469Z,100.00
2018-10-02T00:41:57.917Z,100.00
2018-10-02T00:44:32.801Z,100.00
2018-10-02T00:47:07.508Z,100.00
2018-10-02T00:49:49.351Z,100.00
2018-10-02T00:52:31.960Z,100.00
2018-10-02T00:55:16.863Z,100.00
2018-10-02T00:57:52.295Z,100.00
2018-10-02T01:00:26.773Z,100.00
2018-10-02T01:03:01.124Z,100.00
2018-10-02T01:05:37.550Z,100.00
2018-10-02T01:08:12.470Z,100.00
2018-10-02T01:10:53.103Z,100.00
2018-10-02T01:16:35.639Z,100.00
2018-10-02T01:19:09.871Z,100.00
2018-10-02T01:24:44.046Z,100.00
2018-10-02T01:27:18.448Z,100.00
2018-10-02T01:29:56.469Z,100.00
2018-10-02T01:32:30.886Z,100.00
2018-10-02T01:35:05.322Z,100.00
2018-10-02T01:37:40.164Z,100.00
2018-10-02T01:40:27.189Z,100.00
2018-10-02T01:43:07.602Z,100.00
2018-10-02T01:45:41.995Z,100.00
2018-10-02T01:48:16.481Z,100.00
2018-10-02T01:50:50.759Z,100.00
2018-10-02T01:53:25.087Z,100.00
2018-10-02T01:55:59.644Z,100.00
2018-10-02T01:58:36.124Z,100.00
2018-10-02T02:01:11.275Z,100.00
2018-10-02T02:03:45.685Z,100.00
2018-10-02T02:06:20.248Z,100.00
2018-10-02T02:08:54.850Z,100.00
2018-10-02T02:11:29.611Z,100.00
2018-10-02T02:14:03.999Z,100.00
2018-10-02T02:16:38.395Z,100.00
2018-10-02T02:19:12.771Z,100.00
2018-10-02T02:21:47.224Z,100.00
2018-10-02T02:24:21.533Z,100.00
2018-10-02T02:26:55.845Z,100.00
2018-10-02T02:29:30.219Z,100.00
2018-10-02T02:32:04.480Z,100.00
2018-10-02T02:34:38.853Z,100.00
2018-10-02T02:37:13.287Z,100.00
2018-10-02T02:39:47.711Z,100.00
2018-10-02T02:42:22.115Z,100.00
2018-10-02T02:44:56.975Z,100.00
2018-10-02T02:47:36.744Z,100.00
2018-10-02T02:50:17.304Z,100.00
2018-10-02T02:52:57.097Z,100.00
2018-10-02T02:55:31.439Z,100.00
2018-10-02T02:58:05.719Z,100.00
2018-10-02T03:00:40.108Z,100.00
2018-10-02T03:03:14.483Z,100.00
2018-10-02T03:05:48.860Z,100.00
2018-10-02T03:08:23.191Z,100.00
2018-10-02T03:10:57.575Z,100.00
2018-10-02T03:13:32.017Z,100.00
2018-10-02T03:16:06.427Z,100.00
2018-10-02T03:18:40.867Z,100.00
2018-10-02T03:21:15.267Z,100.00
2018-10-02T03:23:49.616Z,100.00
2018-10-02T03:26:24.001Z,100.00
2018-10-02T03:28:58.297Z,100.00
2018-10-02T03:31:32.646Z,100.00
2018-10-02T03:34:20.203Z,100.00
2018-10-02T03:36:54.530Z,100.00
2018-10-02T03:39:29.284Z,100.00
2018-10-02T03:42:07.200Z,100.00
2018-10-02T03:44:41.504Z,100.00
2018-10-02T03:47:15.886Z,100.00
2018-10-02T03:49:55.779Z,100.00
2018-10-02T03:52:30.076Z,100.00
2018-10-02T03:55:05.207Z,100.00
2018-10-02T03:57:39.524Z,100.00
2018-10-02T04:00:13.995Z,100.00
2018-10-02T04:02:48.415Z,100.00
2018-10-02T04:05:22.721Z,100.00
2018-10-02T04:07:57.174Z,100.00
2018-10-02T04:10:31.988Z,100.00
2018-10-02T04:13:06.750Z,100.00
2018-10-02T04:15:41.172Z,100.00
2018-10-02T04:18:15.692Z,100.00
2018-10-02T04:23:52.727Z,100.00
2018-10-02T04:26:26.967Z,100.00
2018-10-02T04:29:01.776Z,100.00
2018-10-02T04:31:37.526Z,100.00
2018-10-02T04:34:11.776Z,100.00
2018-10-02T04:36:46.331Z,100.00
2018-10-02T04:39:20.605Z,100.00
2018-10-02T04:41:55.651Z,100.00
2018-10-02T04:44:30.067Z,100.00
2018-10-02T04:47:04.516Z,100.00
2018-10-02T04:49:38.987Z,100.00
2018-10-02T04:52:13.636Z,100.00
2018-10-02T04:54:48.371Z,100.00
2018-10-02T04:57:22.717Z,100.00
2018-10-02T04:59:57.398Z,100.00
2018-10-02T05:02:31.621Z,100.00
2018-10-02T05:05:06.039Z,100.00
2018-10-02T05:07:40.500Z,100.00
2018-10-02T05:10:14.894Z,100.00
2018-10-02T05:12:49.236Z,100.00
2018-10-02T05:15:23.654Z,100.00
2018-10-02T05:17:58.335Z,100.00
2018-10-02T05:20:32.760Z,100.00
2018-10-02T05:23:07.208Z,100.00
2018-10-02T05:25:42.538Z,100.00
2018-10-02T05:28:16.814Z,100.00
2018-10-02T05:30:51.432Z,100.00
2018-10-02T05:33:25.954Z,100.00
2018-10-02T05:36:00.857Z,100.00
2018-10-02T05:38:35.339Z,100.00
2018-10-02T05:41:11.100Z,100.00
2018-10-02T05:43:50.049Z,100.00
2018-10-02T05:46:24.523Z,100.00
2018-10-02T05:49:18.757Z,100.00
2018-10-02T05:52:04.656Z,98.69
2018-10-02T05:54:38.957Z,98.23
2018-10-02T05:57:13.455Z,98.35
2018-10-02T05:59:47.807Z,98.04
2018-10-02T06:02:24.873Z,96.34
2018-10-02T06:04:59.514Z,97.08
2018-10-02T06:07:33.808Z,97.68
2018-10-02T06:10:09.173Z,97.85
2018-10-02T06:12:43.540Z,97.10
2018-10-02T06:15:17.883Z,97.82
2018-10-02T06:23:48.512Z,98.04
2018-10-02T06:26:22.972Z,98.87
2018-10-02T06:28:57.232Z,99.72
2018-10-02T06:31:31.756Z,100.00
2018-10-02T06:34:06.153Z,100.00
2018-10-02T06:36:41.757Z,100.00
2018-10-02T06:39:16.407Z,100.00
2018-10-02T06:41:52.726Z,100.00
2018-10-02T06:44:27.943Z,100.00
2018-10-02T06:47:02.099Z,100.00
2018-10-02T06:49:37.759Z,100.00
2018-10-02T06:52:12.827Z,100.00
2018-10-02T06:54:47.039Z,100.00
2018-10-02T06:57:21.562Z,100.00
2018-10-02T06:59:56.186Z,100.00
2018-10-02T07:02:31.212Z,100.00
2018-10-02T07:05:05.863Z,100.00
2018-10-02T07:07:56.037Z,100.00
2018-10-02T07:10:30.505Z,100.00
2018-10-02T07:13:05.021Z,100.00
2018-10-02T07:18:38.832Z,100.00
2018-10-02T07:21:16.773Z,100.00
2018-10-02T07:23:51.143Z,100.00
2018-10-02T07:26:25.644Z,100.00
2018-10-02T07:29:00.582Z,100.00
2018-10-02T07:31:35.096Z,100.00
2018-10-02T07:34:10.154Z,100.00
2018-10-02T07:36:45.033Z,100.00
2018-10-02T07:39:19.744Z,100.00
2018-10-02T07:41:54.526Z,100.00
2018-10-02T07:44:29.072Z,100.00
2018-10-02T07:47:03.665Z,100.00
2018-10-02T07:49:38.158Z,100.00
2018-10-02T07:52:13.357Z,100.00
2018-10-02T07:54:48.121Z,100.00
2018-10-02T07:57:22.826Z,100.00
2018-10-02T07:59:57.643Z,100.00
2018-10-02T08:02:32.317Z,100.00
2018-10-02T08:05:06.954Z,100.00
2018-10-02T08:07:41.296Z,100.00
2018-10-02T08:10:15.932Z,100.00
2018-10-02T08:12:50.497Z,100.00
2018-10-02T08:15:25.092Z,100.00
2018-10-02T08:17:59.695Z,100.00
2018-10-02T08:20:34.192Z,100.00
2018-10-02T08:23:08.747Z,100.00
2018-10-02T08:25:47.543Z,100.00
2018-10-02T08:28:22.409Z,100.00
2018-10-02T08:30:57.585Z,100.00
2018-10-02T08:33:32.275Z,100.00
2018-10-02T08:36:06.946Z,100.00
2018-10-02T08:38:41.397Z,100.00
2018-10-02T08:41:15.897Z,100.00
2018-10-02T08:43:50.738Z,100.00
2018-10-02T08:46:25.383Z,100.00
2018-10-02T08:49:00.077Z,100.00
2018-10-02T08:54:34.612Z,100.00
2018-10-02T08:57:09.708Z,100.00
2018-10-02T08:59:46.123Z,100.00
2018-10-02T09:02:20.724Z,100.00
2018-10-02T09:04:57.382Z,100.00
2018-10-02T09:07:43.147Z,100.00
2018-10-02T09:10:18.203Z,100.00
2018-10-02T09:12:53.079Z,100.00
2018-10-02T09:15:27.582Z,100.00
2018-10-02T09:18:03.100Z,100.00
2018-10-02T09:20:37.535Z,100.00
2018-10-02T09:23:12.164Z,100.00
2018-10-02T09:25:46.895Z,100.00
2018-10-02T09:28:21.511Z,100.00
2018-10-02T09:31:01.402Z,100.00
2018-10-02T09:33:45.413Z,100.00
2018-10-02T09:36:35.585Z,100.00
2018-10-02T09:39:15.345Z,100.00
2018-10-02T09:41:55.558Z,100.00
2018-10-02T09:44:30.050Z,100.00
2018-10-02T09:47:04.716Z,100.00
2018-10-02T09:49:39.474Z,100.00
2018-10-02T09:55:23.656Z,100.00
2018-10-02T09:58:12.884Z,100.00
2018-10-02T10:00:54.823Z,100.00
2018-10-02T10:03:35.596Z,100.00
2018-10-02T10:06:10.503Z,100.00
2018-10-02T10:08:45.490Z,100.00
2018-10-02T10:11:19.993Z,100.00
2018-10-02T10:13:54.450Z,100.00
2018-10-02T10:16:29.158Z,100.00
2018-10-02T10:19:08.657Z,100.00
2018-10-02T10:21:44.231Z,100.00
2018-10-02T10:24:18.865Z,100.00
2018-10-02T10:26:53.383Z,100.00
2018-10-02T10:29:28.107Z,100.00
2018-10-02T10:32:02.740Z,100.00
2018-10-02T10:34:37.317Z,100.00
2018-10-02T10:37:11.752Z,100.00
2018-10-02T10:39:46.623Z,100.00
2018-10-02T10:42:21.184Z,100.00
2018-10-02T10:44:55.788Z,100.00
2018-10-02T10:47:30.389Z,100.00
2018-10-02T10:50:04.995Z,100.00
2018-10-02T10:52:39.743Z,100.00
2018-10-02T10:55:29.272Z,100.00
2018-10-02T10:58:04.040Z,100.00
2018-10-02T11:00:38.557Z,100.00
2018-10-02T11:03:17.140Z,100.00
2018-10-02T11:05:51.801Z,100.00
2018-10-02T11:08:26.478Z,100.00
2018-10-02T11:11:00.929Z,100.00
2018-10-02T11:13:35.612Z,100.00
2018-10-02T11:16:10.188Z,100.00
2018-10-02T11:18:44.722Z,100.00
2018-10-02T11:21:19.444Z,100.00
2018-10-02T11:23:54.281Z,100.00
2018-10-02T11:26:28.900Z,100.00
2018-10-02T11:29:03.903Z,100.00
2018-10-02T11:31:38.678Z,100.00
2018-10-02T11:34:13.346Z,100.00
2018-10-02T11:36:47.853Z,100.00
2018-10-02T11:39:23.847Z,100.00
2018-10-02T11:42:07.699Z,100.00
2018-10-02T11:44:42.187Z,100.00
2018-10-02T11:47:16.848Z,100.00
2018-10-02T11:49:51.546Z,100.00
2018-10-02T11:52:26.117Z,100.00
2018-10-02T11:55:00.689Z,100.00
2018-10-02T11:57:35.377Z,100.00
2018-10-02T12:00:10.057Z,100.00
2018-10-02T12:02:44.573Z,100.00
2018-10-02T12:05:19.041Z,100.00
2018-10-02T12:07:53.780Z,100.00
2018-10-02T12:10:28.339Z,100.00
2018-10-02T12:13:02.902Z,100.00
2018-10-02T12:15:37.490Z,100.00
2018-10-02T12:18:11.952Z,100.00
2018-10-02T12:20:46.601Z,100.00
2018-10-02T12:23:21.065Z,100.00
2018-10-02T12:25:55.648Z,100.00
2018-10-02T12:28:30.207Z,100.00
2018-10-02T12:31:04.919Z,100.00
2018-10-02T12:33:39.436Z,100.00
2018-10-02T12:36:14.255Z,100.00
2018-10-02T12:38:48.976Z,100.00
2018-10-02T12:41:23.539Z,100.00
2018-10-02T12:43:58.093Z,100.00
2018-10-02T12:46:32.952Z,100.00
2018-10-02T12:49:07.560Z,100.00
2018-10-02T12:51:42.143Z,100.00
2018-10-02T12:54:16.970Z,100.00
2018-10-02T12:56:51.736Z,100.00
2018-10-02T12:59:26.337Z,100.00
2018-10-02T13:02:00.773Z,100.00
2018-10-02T13:04:35.240Z,100.00
2018-10-02T13:07:09.745Z,100.00
2018-10-02T13:09:44.293Z,100.00
2018-10-02T13:12:19.109Z,100.00
2018-10-02T13:14:53.750Z,100.00
2018-10-02T13:17:28.345Z,100.00
2018-10-02T13:20:03.095Z,100.00
2018-10-02T13:22:37.542Z,100.00
2018-10-02T13:25:12.062Z,100.00
2018-10-02T13:27:46.657Z,100.00
2018-10-02T13:30:21.105Z,100.00
2018-10-02T13:32:55.838Z,100.00
2018-10-02T13:35:30.494Z,100.00
2018-10-02T13:38:05.154Z,100.00
2018-10-02T13:40:39.781Z,100.00
2018-10-02T13:43:14.664Z,100.00
2018-10-02T13:45:49.484Z,100.00
2018-10-02T13:48:24.020Z,100.00
2018-10-02T13:50:58.496Z,100.00
2018-10-02T13:53:33.122Z,100.00
2018-10-02T13:56:07.565Z,100.00
2018-10-02T13:58:48.549Z,100.00
2018-10-02T14:01:23.282Z,100.00
2018-10-02T14:03:57.664Z,100.00
2018-10-02T14:06:32.036Z,100.00
2018-10-02T14:09:07.941Z,100.00
2018-10-02T14:11:42.534Z,100.00
2018-10-02T14:14:16.973Z,100.00
2018-10-02T14:16:51.349Z,100.00
2018-10-02T14:19:25.780Z,100.00
2018-10-02T14:22:00.394Z,100.00
2018-10-02T14:24:35.089Z,100.00
2018-10-02T14:27:10.345Z,100.00
2018-10-02T14:29:44.812Z,100.00
2018-10-02T14:32:19.323Z,100.00
2018-10-02T14:34:53.982Z,100.00
2018-10-02T14:37:28.569Z,100.00
2018-10-02T14:40:03.129Z,100.00
2018-10-02T14:42:37.649Z,100.00
2018-10-02T14:45:12.281Z,100.00
2018-10-02T14:47:46.824Z,100.00
2018-10-02T14:50:21.266Z,100.00
2018-10-02T14:52:55.752Z,100.00
2018-10-02T14:55:30.369Z,100.00
2018-10-02T14:58:04.752Z,100.00
2018-10-02T15:00:39.192Z,100.00
2018-10-02T15:03:13.744Z,100.00
2018-10-02T15:05:48.457Z,100.00
2018-10-02T15:08:22.981Z,100.00
2018-10-02T15:10:57.455Z,100.00
2018-10-02T15:13:32.061Z,100.00
2018-10-02T15:16:06.536Z,100.00
2018-10-02T15:18:41.077Z,100.00
2018-10-02T15:21:15.624Z,100.00
2018-10-02T15:23:50.124Z,100.00
2018-10-02T15:26:25.304Z,100.00
2018-10-02T15:28:59.820Z,100.00
2018-10-02T15:31:34.349Z,100.00
2018-10-02T15:34:08.953Z,100.00
2018-10-02T15:36:43.360Z,100.00
2018-10-02T15:39:17.780Z,100.00
2018-10-02T15:41:52.265Z,100.00
2018-10-02T15:44:33.930Z,100.00
2018-10-02T15:47:08.572Z,100.00
2018-10-02T15:49:43.272Z,100.00
2018-10-02T15:52:17.801Z,100.00
2018-10-02T15:54:52.220Z,100.00
2018-10-02T15:57:26.824Z,100.00
2018-10-02T16:00:01.299Z,100.00
2018-10-02T16:02:35.752Z,100.00
2018-10-02T16:05:10.271Z,100.00
2018-10-02T16:07:44.835Z,100.00
2018-10-02T16:10:20.111Z,100.00
2018-10-02T16:12:54.715Z,100.00
2018-10-02T16:15:29.421Z,100.00
2018-10-02T16:18:04.174Z,100.00
2018-10-02T16:20:38.805Z,100.00
2018-10-02T16:23:13.408Z,100.00
2018-10-02T16:25:47.848Z,100.00
2018-10-02T16:28:22.321Z,100.00
2018-10-02T16:30:57.041Z,100.00
2018-10-02T16:33:31.733Z,100.00
2018-10-02T16:36:06.469Z,100.00
2018-10-02T16:38:41.105Z,100.00
2018-10-02T16:41:15.749Z,100.00
2018-10-02T16:43:50.381Z,100.00
2018-10-02T16:46:24.949Z,100.00
2018-10-02T16:48:59.594Z,100.00
2018-10-02T16:51:34.008Z,100.00
2018-10-02T16:54:08.540Z,100.00
2018-10-02T16:56:43.299Z,100.00
2018-10-02T16:59:17.960Z,100.00
2018-10-02T17:01:52.609Z,100.00
2018-10-02T17:04:27.247Z,100.00
2018-10-02T17:07:01.784Z,100.00
2018-10-02T17:09:36.163Z,100.00
2018-10-02T17:12:10.928Z,100.00
2018-10-02T17:14:45.408Z,100.00
2018-10-02T17:17:19.768Z,100.00
2018-10-02T17:19:54.152Z,100.00
2018-10-02T17:22:28.595Z,100.00
2018-10-02T17:25:03.496Z,100.00
2018-10-02T17:30:39.605Z,100.00
2018-10-02T17:33:14.301Z,100.00
2018-10-02T17:35:56.757Z,100.00
2018-10-02T17:38:31.818Z,100.00
2018-10-02T17:41:06.722Z,100.00
2018-10-02T17:43:41.412Z,100.00
2018-10-02T17:46:19.613Z,100.00
2018-10-02T17:48:54.442Z,100.00
2018-10-02T17:51:35.740Z,100.00
2018-10-02T17:54:10.180Z,100.00
2018-10-02T17:56:47.988Z,100.00
2018-10-02T17:59:38.769Z,100.00
2018-10-02T18:02:13.245Z,100.00
2018-10-02T18:04:47.763Z,100.00
2018-10-02T18:07:22.321Z,100.00
2018-10-02T18:10:08.704Z,100.00
2018-10-02T18:12:43.341Z,100.00
2018-10-02T18:15:17.952Z,100.00
2018-10-02T18:17:52.424Z,100.00
2018-10-02T18:20:27.019Z,100.00
2018-10-02T18:23:01.657Z,100.00
2018-10-02T18:25:36.225Z,100.00
2018-10-02T18:31:10.200Z,100.00
2018-10-02T18:33:44.850Z,100.00
2018-10-02T18:39:32.107Z,100.00
2018-10-02T18:42:10.052Z,100.00
2018-10-02T18:44:45.098Z,100.00
2018-10-02T18:47:19.780Z,100.00
2018-10-02T18:49:54.458Z,100.00
2018-10-02T18:52:35.648Z,100.00
2018-10-02T18:55:31.022Z,100.00
2018-10-02T18:58:05.632Z,100.00
2018-10-02T19:00:40.240Z,100.00
2018-10-02T19:03:14.776Z,100.00
2018-10-02T19:05:49.241Z,100.00
2018-10-02T19:08:45.907Z,100.00
2018-10-02T19:11:37.144Z,100.00
2018-10-02T19:14:30.539Z,100.00
2018-10-02T19:17:05.439Z,100.00
2018-10-02T19:19:45.223Z,100.00
2018-10-02T19:22:42.331Z,100.00
2018-10-02T19:25:22.920Z,100.00
2018-10-02T19:27:57.344Z,100.00
2018-10-02T19:30:37.175Z,100.00
2018-10-02T19:33:12.561Z,100.00
2018-10-02T19:35:48.304Z,100.00
2018-10-02T19:38:28.178Z,100.00
2018-10-02T19:41:02.749Z,100.00
2018-10-02T19:43:37.953Z,100.00
2018-10-02T19:46:17.788Z,100.00
2018-10-02T19:48:52.365Z,100.00
2018-10-02T19:51:46.273Z,100.00
2018-10-02T19:54:25.646Z,100.00
2018-10-02T19:57:00.141Z,100.00
2018-10-02T19:59:36.616Z,100.00
2018-10-02T20:02:11.217Z,100.00
2018-10-02T20:04:45.905Z,100.00
2018-10-02T20:07:20.553Z,100.00
2018-10-02T20:09:55.065Z,100.00
2018-10-02T20:12:29.649Z,100.00
2018-10-02T20:15:04.369Z,100.00
2018-10-02T20:17:39.065Z,100.00
2018-10-02T20:20:13.600Z,100.00
2018-10-02T20:22:48.210Z,100.00
2018-10-02T20:25:22.779Z,100.00
2018-10-02T20:27:57.180Z,100.00
2018-10-02T20:30:32.889Z,100.00
2018-10-02T20:33:07.496Z,100.00
2018-10-02T20:35:41.940Z,100.00
2018-10-02T20:38:16.452Z,100.00
2018-10-02T20:40:53.987Z,100.00
2018-10-02T20:43:28.702Z,100.00
2018-10-02T20:46:03.242Z,100.00
2018-10-02T20:48:37.957Z,100.00
2018-10-02T20:51:12.464Z,100.00
2018-10-02T20:53:47.037Z,100.00
2018-10-02T20:56:21.637Z,100.00
2018-10-02T20:58:56.449Z,100.00
2018-10-02T21:01:31.048Z,99.91
2018-10-02T21:04:08.121Z,99.49
2018-10-02T21:06:44.823Z,99.83
2018-10-02T21:09:20.576Z,99.77
2018-10-02T21:11:55.056Z,99.62
2018-10-02T21:14:36.252Z,99.92
2018-10-02T21:17:15.330Z,100.00
2018-10-02T21:19:49.932Z,100.00
2018-10-02T21:22:24.358Z,100.00
2018-10-02T21:24:58.792Z,100.00
2018-10-02T21:27:33.301Z,100.00
2018-10-02T21:30:07.824Z,100.00
2018-10-02T21:32:42.357Z,100.00
2018-10-02T21:35:16.877Z,100.00
2018-10-02T21:37:51.641Z,100.00
2018-10-02T21:40:26.245Z,100.00
2018-10-02T21:43:00.660Z,100.00
2018-10-02T21:45:35.180Z,100.00
2018-10-02T21:48:09.944Z,100.00
2018-10-02T21:50:44.656Z,100.00
2018-10-02T21:53:19.266Z,100.00
2018-10-02T21:55:53.996Z,100.00
2018-10-02T21:58:28.629Z,100.00
2018-10-02T22:01:04.576Z,100.00
2018-10-02T22:03:40.214Z,100.00
2018-10-02T22:06:14.767Z,100.00
2018-10-02T22:08:49.483Z,100.00
2018-10-02T22:11:24.026Z,100.00
2018-10-02T22:13:58.605Z,100.00
2018-10-02T22:16:33.145Z,100.00
2018-10-02T22:19:07.876Z,100.00
2018-10-02T22:21:42.785Z,100.00
2018-10-02T22:24:17.403Z,100.00
2018-10-02T22:26:52.244Z,100.00
2018-10-02T22:29:26.829Z,100.00
2018-10-02T22:32:01.321Z,100.00
2018-10-02T22:34:35.885Z,100.00
2018-10-02T22:37:10.412Z,100.00
2018-10-02T22:39:45.268Z,100.00
2018-10-02T22:42:19.867Z,100.00
2018-10-02T22:44:54.514Z,100.00
2018-10-02T22:47:29.289Z,100.00
2018-10-02T22:50:05.144Z,100.00
2018-10-02T22:52:39.672Z,100.00
2018-10-02T22:55:14.424Z,100.00
2018-10-02T22:57:49.100Z,100.00
2018-10-02T23:00:23.913Z,100.00
2018-10-02T23:02:58.652Z,100.00
2018-10-02T23:05:34.779Z,100.00
2018-10-02T23:08:09.288Z,100.00
2018-10-02T23:10:44.001Z,100.00
2018-10-02T23:13:22.776Z,100.00
2018-10-02T23:15:57.730Z,100.00
2018-10-02T23:18:32.448Z,100.00
2018-10-02T23:21:07.092Z,100.00
2018-10-02T23:23:41.601Z,100.00
2018-10-02T23:26:16.189Z,100.00
2018-10-02T23:28:50.722Z,100.00
2018-10-02T23:31:25.271Z,100.00
2018-10-02T23:33:59.808Z,100.00
2018-10-02T23:36:34.468Z,100.00
2018-10-02T23:39:09.569Z,100.00
2018-10-02T23:41:44.696Z,100.00
2018-10-02T23:44:19.312Z,100.00
2018-10-02T23:49:52.885Z,100.00
2018-10-02T23:52:27.734Z,100.00
2018-10-02T23:55:02.437Z,100.00
2018-10-02T23:57:37.059Z,100.00
